createdAt,value
2022-10-14T00:00:37.907Z,102984.06
2022-10-14T00:03:05.777Z,102977.09
2022-10-14T00:05:33.752Z,102975.31
2022-10-14T00:08:01.589Z,102978.81
2022-10-14T00:10:29.445Z,102978.75
2022-10-14T00:12:58.829Z,102970.09
2022-10-14T00:15:26.745Z,102975.31
2022-10-14T00:17:54.658Z,102966.53
2022-10-14T00:20:22.581Z,102970.00
2022-10-14T00:22:50.463Z,102963.00
2022-10-14T00:25:18.979Z,102955.09
2022-10-14T00:27:46.852Z,102943.72
2022-10-14T00:30:16.301Z,102936.72
2022-10-14T00:32:44.221Z,102935.78
2022-10-14T00:35:12.161Z,102933.16
2022-10-14T00:37:40.054Z,102934.91
2022-10-14T00:40:08.592Z,102925.28
2022-10-14T00:42:36.811Z,102917.31
2022-10-14T00:45:14.062Z,102912.91
2022-10-14T00:47:45.201Z,102913.84
2022-10-14T00:50:15.455Z,102907.66
2022-10-14T00:52:44.283Z,102901.53
2022-10-14T00:55:17.244Z,102908.50
2022-10-14T00:57:45.580Z,102905.88
2022-10-14T01:00:16.127Z,102891.03
2022-10-14T01:02:45.650Z,102887.56
2022-10-14T01:05:16.478Z,102893.66
2022-10-14T01:07:51.427Z,102891.84
2022-10-14T01:10:27.799Z,102882.28
2022-10-14T01:13:09.347Z,102873.50
2022-10-14T01:15:45.327Z,102882.28
2022-10-14T01:18:26.151Z,102876.19
2022-10-14T01:21:10.858Z,102866.56
2022-10-14T01:23:47.737Z,102867.44
2022-10-14T01:26:35.381Z,102870.97
2022-10-14T01:29:17.780Z,102869.22
2022-10-14T01:31:50.459Z,102869.22
2022-10-14T01:34:26.250Z,102863.09
2022-10-14T01:37:00.157Z,102862.25
2022-10-14T01:39:33.098Z,102862.25
2022-10-14T01:42:06.718Z,102862.25
2022-10-14T01:44:36.619Z,102861.41
2022-10-14T01:47:07.903Z,102861.41
2022-10-14T01:49:38.836Z,102845.59
2022-10-14T01:52:10.072Z,102825.50
2022-10-14T01:54:42.537Z,102825.50
2022-10-14T01:57:15.351Z,102830.72
2022-10-14T01:59:45.327Z,102836.78
2022-10-14T02:02:15.087Z,102835.97
2022-10-14T02:04:42.949Z,102831.53
2022-10-14T02:07:20.907Z,102826.22
2022-10-14T02:09:56.111Z,102815.69
2022-10-14T02:12:35.284Z,102811.31
2022-10-14T02:15:14.047Z,102806.97
2022-10-14T02:17:52.046Z,102796.47
2022-10-14T02:20:25.174Z,102793.00
2022-10-14T02:22:59.449Z,102793.84
2022-10-14T02:25:32.276Z,102783.38
2022-10-14T02:28:01.903Z,102788.59
2022-10-14T02:30:34.259Z,102786.88
2022-10-14T02:33:04.788Z,102782.50
2022-10-14T02:35:34.789Z,102780.75
2022-10-14T02:38:03.489Z,102774.59
2022-10-14T02:40:37.276Z,102767.63
2022-10-14T02:43:07.970Z,102765.00
2022-10-14T02:45:36.006Z,102758.97
2022-10-14T02:48:06.126Z,102752.88
2022-10-14T02:50:34.499Z,102752.06
2022-10-14T02:53:02.388Z,102750.31
2022-10-14T02:55:30.367Z,102753.84
2022-10-14T02:57:58.212Z,102751.28
2022-10-14T03:00:26.010Z,102742.63
2022-10-14T03:02:53.801Z,102731.31
2022-10-14T03:05:23.047Z,102729.59
2022-10-14T03:07:50.889Z,102727.00
2022-10-14T03:10:19.282Z,102721.84
2022-10-14T03:12:47.091Z,102726.22
2022-10-14T03:15:15.012Z,102707.94
2022-10-14T03:17:42.915Z,102703.56
2022-10-14T03:20:11.869Z,102693.19
2022-10-14T03:22:41.051Z,102677.56
2022-10-14T03:25:09.822Z,102665.41
2022-10-14T03:27:37.641Z,102650.53
2022-10-14T03:30:06.386Z,102641.03
2022-10-14T03:32:34.296Z,102635.81
2022-10-14T03:35:02.361Z,102627.94
2022-10-14T03:37:30.213Z,102608.78
2022-10-14T03:39:59.479Z,102594.03
2022-10-14T03:42:27.343Z,102579.34
2022-10-14T03:44:55.213Z,102558.47
2022-10-14T03:47:23.156Z,102548.03
2022-10-14T03:49:51.024Z,102535.03
2022-10-14T03:52:19.059Z,102524.63
2022-10-14T03:54:47.125Z,102518.50
2022-10-14T03:57:16.354Z,102509.75
2022-10-14T03:59:44.201Z,102500.97
2022-10-14T04:02:12.141Z,102486.09
2022-10-14T04:04:40.009Z,102486.00
2022-10-14T04:07:07.877Z,102487.75
2022-10-14T04:09:35.743Z,102486.78
2022-10-14T04:12:03.633Z,102477.16
2022-10-14T04:14:32.965Z,102464.88
2022-10-14T04:17:00.859Z,102463.97
2022-10-14T04:19:28.723Z,102466.53
2022-10-14T04:21:56.558Z,102463.88
2022-10-14T04:24:24.535Z,102467.28
2022-10-14T04:26:52.815Z,102470.72
2022-10-14T04:29:20.671Z,102476.81
2022-10-14T04:31:50.381Z,102473.28
2022-10-14T04:34:18.216Z,102472.34
2022-10-14T04:36:46.035Z,102481.94
2022-10-14T04:39:15.591Z,102474.94
2022-10-14T04:41:43.512Z,102479.41
2022-10-14T04:44:11.464Z,102481.09
2022-10-14T04:46:39.448Z,102480.22
2022-10-14T04:49:09.687Z,102473.28
2022-10-14T04:51:37.503Z,102461.94
2022-10-14T04:54:05.895Z,102472.44
2022-10-14T04:56:33.778Z,102477.69
2022-10-14T04:59:01.817Z,102477.69
2022-10-14T05:01:33.766Z,102477.69
2022-10-14T05:04:02.094Z,102470.72
2022-10-14T05:06:31.387Z,102475.06
2022-10-14T05:08:59.337Z,102470.72
2022-10-14T05:11:28.433Z,102467.19
2022-10-14T05:13:56.243Z,102464.56
2022-10-14T05:16:24.092Z,102466.34
2022-10-14T05:18:52.723Z,102455.06
2022-10-14T05:21:20.623Z,102456.81
2022-10-14T05:23:49.958Z,102457.78
2022-10-14T05:26:17.791Z,102458.75
2022-10-14T05:28:45.917Z,102464.88
2022-10-14T05:31:13.818Z,102463.28
2022-10-14T05:33:41.683Z,102459.06
2022-10-14T05:36:10.193Z,102459.16
2022-10-14T05:38:38.078Z,102455.75
2022-10-14T05:41:07.483Z,102447.09
2022-10-14T05:43:35.362Z,102443.69
2022-10-14T05:46:03.444Z,102431.47
2022-10-14T05:48:32.255Z,102434.03
2022-10-14T05:51:02.549Z,102429.66
2022-10-14T05:53:30.734Z,102422.66
2022-10-14T05:56:03.036Z,102416.44
2022-10-14T05:58:32.360Z,102419.16
2022-10-14T06:01:01.511Z,102414.00
2022-10-14T06:03:29.671Z,102414.03
2022-10-14T06:05:57.934Z,102421.06
2022-10-14T06:08:26.517Z,102421.19
2022-10-14T06:10:54.762Z,102440.41
2022-10-14T06:13:23.538Z,102441.28
2022-10-14T06:15:52.768Z,102437.84
2022-10-14T06:18:20.627Z,102436.22
2022-10-14T06:20:53.154Z,102432.00
2022-10-14T06:23:20.974Z,102414.25
2022-10-14T06:25:48.817Z,102430.25
2022-10-14T06:28:17.825Z,102437.41
2022-10-14T06:30:52.087Z,102437.53
2022-10-14T06:33:20.730Z,102434.94
2022-10-14T06:35:48.911Z,102426.22
2022-10-14T06:38:17.074Z,102420.19
2022-10-14T06:40:44.945Z,102410.63
2022-10-14T06:43:12.813Z,102404.59
2022-10-14T06:45:40.624Z,102387.13
2022-10-14T06:48:10.159Z,102368.88
2022-10-14T06:50:39.276Z,102362.72
2022-10-14T06:53:07.314Z,102362.53
2022-10-14T06:55:35.368Z,102347.63
2022-10-14T06:58:03.236Z,102337.13
2022-10-14T07:00:31.101Z,102323.97
2022-10-14T07:02:59.412Z,102320.41
2022-10-14T07:05:28.779Z,102318.56
2022-10-14T07:07:58.324Z,102312.34
2022-10-14T07:10:26.235Z,102309.66
2022-10-14T07:12:55.662Z,102306.22
2022-10-14T07:15:23.623Z,102295.75
2022-10-14T07:17:51.450Z,102284.31
2022-10-14T07:20:19.468Z,102283.28
2022-10-14T07:22:48.760Z,102293.66
2022-10-14T07:25:16.784Z,102297.06
2022-10-14T07:27:44.619Z,102282.16
2022-10-14T07:30:15.297Z,102296.84
2022-10-14T07:32:45.621Z,102306.31
2022-10-14T07:35:13.573Z,102302.75
2022-10-14T07:37:41.491Z,102295.72
2022-10-14T07:40:11.971Z,102292.06
2022-10-14T07:42:39.842Z,102294.59
2022-10-14T07:45:09.188Z,102293.69
2022-10-14T07:47:37.093Z,102293.69
2022-10-14T07:50:05.490Z,102296.31
2022-10-14T07:52:33.604Z,102297.97
2022-10-14T07:55:01.477Z,102310.88
2022-10-14T07:57:30.797Z,102322.94
2022-10-14T07:59:58.720Z,102314.97
2022-10-14T08:02:26.659Z,102316.63
2022-10-14T08:05:04.057Z,102318.34
2022-10-14T08:07:41.299Z,102333.84
2022-10-14T08:10:09.222Z,102334.44
2022-10-14T08:12:38.459Z,102327.28
2022-10-14T08:15:07.207Z,102321.91
2022-10-14T08:17:35.042Z,102321.78
2022-10-14T08:20:02.935Z,102318.28
2022-10-14T08:22:30.749Z,102312.91
2022-10-14T08:24:58.583Z,102314.59
2022-10-14T08:27:27.034Z,102321.53
2022-10-14T08:29:56.927Z,102320.56
2022-10-14T08:32:25.001Z,102309.09
2022-10-14T08:34:53.208Z,102303.78
2022-10-14T08:37:21.053Z,102308.03
2022-10-14T08:39:48.870Z,102311.44
2022-10-14T08:42:36.784Z,102312.28
2022-10-14T08:45:11.512Z,102306.94
2022-10-14T08:47:43.418Z,102306.84
2022-10-14T08:50:23.281Z,102305.94
2022-10-14T08:52:55.267Z,102311.19
2022-10-14T08:55:31.293Z,102318.97
2022-10-14T08:58:06.278Z,102329.53
2022-10-14T09:00:38.374Z,102338.31
2022-10-14T09:03:16.457Z,102362.78
2022-10-14T09:05:44.620Z,102361.16
2022-10-14T09:08:16.815Z,102363.72
2022-10-14T09:10:45.391Z,102373.19
2022-10-14T09:13:18.739Z,102387.78
2022-10-14T09:15:51.413Z,102400.53
2022-10-14T09:18:28.938Z,102401.97
2022-10-14T09:20:58.074Z,102406.13
2022-10-14T09:23:29.021Z,102403.38
2022-10-14T09:25:58.857Z,102391.97
2022-10-14T09:28:36.267Z,102395.59
2022-10-14T09:31:06.834Z,102407.06
2022-10-14T09:33:42.174Z,102412.41
2022-10-14T09:36:16.759Z,102426.44
2022-10-14T09:38:45.395Z,102427.31
2022-10-14T09:41:16.922Z,102429.84
2022-10-14T09:44:19.837Z,102428.88
2022-10-14T09:46:53.269Z,102434.97
2022-10-14T09:49:23.956Z,102436.69
2022-10-14T09:51:53.060Z,102438.28
2022-10-14T09:54:26.450Z,102438.94
2022-10-14T09:57:05.122Z,102437.69
2022-10-14T09:59:33.595Z,102443.53
2022-10-14T10:02:05.505Z,102449.41
2022-10-14T10:04:37.313Z,102455.41
2022-10-14T10:07:07.162Z,102463.09
2022-10-14T10:09:35.682Z,102462.00
2022-10-14T10:12:24.407Z,102467.59
2022-10-14T10:14:58.615Z,102472.34
2022-10-14T10:17:28.798Z,102468.94
2022-10-14T10:20:10.729Z,102464.53
2022-10-14T10:22:39.309Z,102482.88
2022-10-14T10:25:28.787Z,102494.94
2022-10-14T10:28:00.001Z,102513.44
2022-10-14T10:30:32.280Z,102518.00
2022-10-14T10:33:18.880Z,102522.03
2022-10-14T10:36:04.374Z,102520.53
2022-10-14T10:38:36.592Z,102539.44
2022-10-14T10:41:17.115Z,102537.94
2022-10-14T10:44:07.048Z,102538.25
2022-10-14T10:46:55.092Z,102546.47
2022-10-14T10:49:40.651Z,102535.78
2022-10-14T10:52:21.198Z,102540.38
2022-10-14T10:54:59.475Z,102531.44
2022-10-14T10:57:43.261Z,102529.59
2022-10-14T11:00:16.501Z,102529.75
2022-10-14T11:03:11.774Z,102523.75
2022-10-14T11:05:58.479Z,102523.81
2022-10-14T11:09:03.855Z,102514.22
2022-10-14T11:11:52.616Z,102502.13
2022-10-14T11:14:58.759Z,102509.97
2022-10-14T11:17:35.667Z,102501.22
2022-10-14T11:20:18.167Z,102493.19
2022-10-14T11:23:00.520Z,102496.69
2022-10-14T11:25:49.232Z,102491.34
2022-10-14T11:28:23.149Z,102486.19
2022-10-14T11:30:57.851Z,102484.00
2022-10-14T11:33:46.135Z,102478.72
2022-10-14T11:36:27.466Z,102477.81
2022-10-14T11:39:20.291Z,102480.03
2022-10-14T11:42:05.140Z,102474.97
2022-10-14T11:44:38.023Z,102472.44
2022-10-14T11:47:12.522Z,102464.72
2022-10-14T11:49:48.150Z,102449.06
2022-10-14T11:52:23.211Z,102442.81
2022-10-14T11:55:09.826Z,102406.59
2022-10-14T11:57:45.563Z,102376.03
2022-10-14T12:00:34.640Z,102377.69
2022-10-14T12:03:12.386Z,102359.13
2022-10-14T12:05:44.707Z,102337.69
2022-10-14T12:08:22.240Z,102335.81
2022-10-14T12:10:56.125Z,102325.53
2022-10-14T12:13:33.395Z,102309.88
2022-10-14T12:16:02.226Z,102316.22
2022-10-14T12:18:32.972Z,102306.75
2022-10-14T12:21:19.401Z,102317.81
2022-10-14T12:23:51.023Z,102316.03
2022-10-14T12:26:40.722Z,102302.06
2022-10-14T12:29:14.331Z,102292.44
2022-10-14T12:31:42.266Z,102262.09
2022-10-14T12:34:25.473Z,102250.47
2022-10-14T12:36:53.330Z,102223.25
2022-10-14T12:39:43.064Z,102205.56
2022-10-14T12:42:14.971Z,102201.69
2022-10-14T12:44:48.106Z,102204.34
2022-10-14T12:47:22.729Z,102204.66
2022-10-14T12:49:53.400Z,102206.63
2022-10-14T12:52:24.863Z,102217.84
2022-10-14T12:54:53.709Z,102214.25
2022-10-14T12:57:29.746Z,102214.13
2022-10-14T13:00:01.090Z,102214.28
2022-10-14T13:02:33.568Z,102219.38
2022-10-14T13:05:03.977Z,102215.09
2022-10-14T13:07:41.150Z,102216.28
2022-10-14T13:10:46.786Z,102223.41
2022-10-14T13:13:53.503Z,102222.72
2022-10-14T13:16:58.263Z,102220.34
2022-10-14T13:19:44.689Z,102236.53
2022-10-14T13:22:43.792Z,102235.72
2022-10-14T13:25:20.254Z,102244.34
2022-10-14T13:27:56.364Z,102240.47
2022-10-14T13:30:33.984Z,102242.16
2022-10-14T13:33:13.374Z,102248.91
2022-10-14T13:35:51.120Z,102245.41
2022-10-14T13:38:21.243Z,102243.47
2022-10-14T13:40:51.411Z,102238.47
2022-10-14T13:43:26.727Z,102242.44
2022-10-14T13:45:58.976Z,102240.44
2022-10-14T13:48:32.575Z,102246.25
2022-10-14T13:51:37.073Z,102255.94
2022-10-14T13:54:17.729Z,102248.66
2022-10-14T13:56:45.770Z,102259.69
2022-10-14T13:59:43.297Z,102256.78
2022-10-14T14:02:16.061Z,102251.06
2022-10-14T14:04:52.130Z,102257.88
2022-10-14T14:07:58.906Z,102255.63
2022-10-14T14:10:13.441Z,102254.47
2022-10-14T14:12:44.388Z,102268.13
2022-10-14T14:15:20.858Z,102273.69
2022-10-14T14:17:48.738Z,102284.81
2022-10-14T14:20:21.908Z,102291.63
2022-10-14T14:22:50.063Z,102297.38
2022-10-14T14:26:01.257Z,102299.28
2022-10-14T14:28:15.337Z,102296.81
2022-10-14T14:30:54.346Z,102309.69
2022-10-14T14:33:30.664Z,102317.44
2022-10-14T14:36:02.626Z,102307.44
2022-10-14T14:38:32.322Z,102303.19
2022-10-14T14:41:06.038Z,102295.28
2022-10-14T14:43:39.682Z,102282.00
2022-10-14T14:46:18.238Z,102256.78
2022-10-14T14:48:53.445Z,102261.31
2022-10-14T14:51:24.084Z,102255.47
2022-10-14T14:53:54.677Z,102269.84
2022-10-14T14:56:27.254Z,102282.09
2022-10-14T14:58:58.274Z,102288.63
2022-10-14T15:01:27.868Z,102300.16
2022-10-14T15:04:12.459Z,102312.47
2022-10-14T15:06:51.312Z,102325.19
2022-10-14T15:09:25.366Z,102335.84
2022-10-14T15:11:55.843Z,102338.03
2022-10-14T15:14:33.395Z,102310.41
2022-10-14T15:17:01.321Z,102310.06
2022-10-14T15:19:39.630Z,102296.66
2022-10-14T15:22:28.662Z,102292.22
2022-10-14T15:25:02.632Z,102278.13
2022-10-14T15:27:52.645Z,102264.94
2022-10-14T15:30:27.149Z,102261.59
2022-10-14T15:32:58.624Z,102258.28
2022-10-14T15:35:27.311Z,102256.59
2022-10-14T15:37:56.951Z,102264.38
2022-10-14T15:40:29.074Z,102272.47
2022-10-14T15:42:57.230Z,102281.50
2022-10-14T15:45:25.998Z,102288.94
2022-10-14T15:50:29.579Z,102311.72
2022-10-14T15:52:58.830Z,102318.75
2022-10-14T15:55:29.678Z,102320.06
2022-10-14T15:57:57.587Z,102331.19
2022-10-14T16:00:26.105Z,102326.41
2022-10-14T16:02:57.110Z,102346.94
2022-10-14T16:05:25.462Z,102345.97
2022-10-14T16:07:53.302Z,102357.38
2022-10-14T16:10:23.812Z,102371.16
2022-10-14T16:12:51.861Z,102390.53
2022-10-14T16:15:33.340Z,102377.06
2022-10-14T16:18:01.874Z,102372.28
2022-10-14T16:20:30.809Z,102373.34
2022-10-14T16:22:59.454Z,102375.06
2022-10-14T16:25:33.600Z,102366.03
2022-10-14T16:28:01.535Z,102377.91
2022-10-14T16:30:29.349Z,102384.13
2022-10-14T16:32:57.256Z,102404.22
2022-10-14T16:35:25.222Z,102405.75
2022-10-14T16:37:54.572Z,102411.25
2022-10-14T16:40:23.385Z,102416.75
2022-10-14T16:42:53.347Z,102412.56
2022-10-14T16:45:21.228Z,102414.41
2022-10-14T16:47:49.061Z,102403.97
2022-10-14T16:50:16.915Z,102413.91
2022-10-14T16:53:05.926Z,102425.94
2022-10-14T16:55:34.162Z,102443.41
2022-10-14T16:58:03.651Z,102444.81
2022-10-14T17:00:31.533Z,102450.41
2022-10-14T17:02:59.528Z,102469.94
2022-10-14T17:05:28.636Z,102479.97
2022-10-14T17:07:56.507Z,102481.19
2022-10-14T17:10:25.277Z,102499.81
2022-10-14T17:12:54.694Z,102508.00
2022-10-14T17:15:24.883Z,102532.69
2022-10-14T17:17:53.704Z,102530.25
2022-10-14T17:20:21.990Z,102531.16
2022-10-14T17:22:50.262Z,102530.31
2022-10-14T17:25:20.081Z,102527.81
2022-10-14T17:27:47.969Z,102528.72
2022-10-14T17:30:15.943Z,102527.94
2022-10-14T17:32:45.240Z,102522.03
2022-10-14T17:35:15.231Z,102524.78
2022-10-14T17:37:43.424Z,102518.91
2022-10-14T17:40:12.030Z,102522.69
2022-10-14T17:42:39.878Z,102521.28
2022-10-14T17:45:09.235Z,102524.13
2022-10-14T17:47:37.075Z,102528.78
2022-10-14T17:50:08.904Z,102522.91
2022-10-14T17:52:36.781Z,102530.97
2022-10-14T17:55:05.002Z,102527.59
2022-10-14T17:57:32.922Z,102529.47
2022-10-14T18:00:00.745Z,102520.81
2022-10-14T18:02:28.765Z,102520.94
2022-10-14T18:04:56.641Z,102511.34
2022-10-14T18:07:26.546Z,102505.25
2022-10-14T18:09:54.396Z,102501.03
2022-10-14T18:12:22.783Z,102490.63
2022-10-14T18:14:50.718Z,102492.47
2022-10-14T18:17:19.192Z,102491.72
2022-10-14T18:19:52.337Z,102488.31
2022-10-14T18:22:20.408Z,102474.44
2022-10-14T18:24:49.642Z,102474.63
2022-10-14T18:27:17.521Z,102471.22
2022-10-14T18:29:45.583Z,102461.69
2022-10-14T18:32:13.429Z,102464.44
2022-10-14T18:34:41.406Z,102458.41
2022-10-14T18:37:09.275Z,102449.78
2022-10-14T18:39:37.223Z,102456.00
2022-10-14T18:42:06.636Z,102450.03
2022-10-14T18:44:34.486Z,102448.31
2022-10-14T18:47:02.408Z,102454.47
2022-10-14T18:49:30.661Z,102443.97
2022-10-14T18:51:58.551Z,102437.81
2022-10-14T18:54:26.470Z,102443.84
2022-10-14T18:56:54.943Z,102434.16
2022-10-14T18:59:25.025Z,102420.91
2022-10-14T19:01:53.948Z,102413.69
2022-10-14T19:04:23.728Z,102411.13
2022-10-14T19:06:51.714Z,102412.91
2022-10-14T19:09:21.721Z,102413.81
2022-10-14T19:11:51.725Z,102404.31
2022-10-14T19:14:20.696Z,102404.31
2022-10-14T19:16:50.057Z,102403.44
2022-10-14T19:19:19.712Z,102401.78
2022-10-14T19:21:49.852Z,102395.75
2022-10-14T19:24:18.241Z,102386.16
2022-10-14T19:26:48.808Z,102383.53
2022-10-14T19:29:17.248Z,102386.16
2022-10-14T19:31:45.211Z,102387.03
2022-10-14T19:34:16.897Z,102387.91
2022-10-14T19:36:45.599Z,102377.41
2022-10-14T19:39:15.790Z,102372.19
2022-10-14T19:41:45.094Z,102367.06
2022-10-14T19:44:14.180Z,102368.03
2022-10-14T19:46:42.619Z,102370.00
2022-10-14T19:49:13.261Z,102367.47
2022-10-14T19:51:42.821Z,102356.16
2022-10-14T19:54:11.839Z,102349.13
2022-10-14T19:56:39.793Z,102350.09
2022-10-14T19:59:07.893Z,102345.84
2022-10-14T20:01:35.992Z,102342.41
2022-10-14T20:04:04.215Z,102343.31
2022-10-14T20:06:35.459Z,102336.41
2022-10-14T20:09:06.058Z,102332.06
2022-10-14T20:11:35.460Z,102311.97
2022-10-14T20:14:03.346Z,102307.66
2022-10-14T20:16:31.265Z,102309.44
2022-10-14T20:18:59.320Z,102292.06
2022-10-14T20:21:30.013Z,102290.34
2022-10-14T20:23:59.553Z,102290.47
2022-10-14T20:26:28.874Z,102280.91
2022-10-14T20:28:56.913Z,102277.50
2022-10-14T20:31:26.204Z,102277.44
2022-10-14T20:33:56.288Z,102273.81
2022-10-14T20:36:24.787Z,102270.22
2022-10-14T20:38:52.952Z,102270.97
2022-10-14T20:41:23.546Z,102267.44
2022-10-14T20:43:53.964Z,102260.38
2022-10-14T20:46:23.409Z,102247.19
2022-10-14T20:48:55.167Z,102249.03
2022-10-14T20:51:23.720Z,102247.31
2022-10-14T20:53:58.511Z,102245.63
2022-10-14T20:56:31.263Z,102240.38
2022-10-14T20:59:02.129Z,102228.94
2022-10-14T21:01:30.770Z,102226.31
2022-10-14T21:04:01.643Z,102220.13
2022-10-14T21:06:30.168Z,102209.63
2022-10-14T21:08:59.053Z,102211.34
2022-10-14T21:11:27.975Z,102200.88
2022-10-14T21:13:58.149Z,102214.75
2022-10-14T21:16:30.362Z,102205.13
2022-10-14T21:18:59.805Z,102201.66
2022-10-14T21:21:29.641Z,102205.06
2022-10-14T21:23:58.093Z,102202.44
2022-10-14T21:26:26.351Z,102193.69
2022-10-14T21:28:54.249Z,102190.19
2022-10-14T21:31:22.295Z,102185.81
2022-10-14T21:34:04.156Z,102180.53
2022-10-14T21:36:33.263Z,102184.91
2022-10-14T21:39:01.996Z,102186.59
2022-10-14T21:41:29.878Z,102180.44
2022-10-14T21:43:59.330Z,102176.91
2022-10-14T21:46:27.668Z,102171.69
2022-10-14T21:48:58.236Z,102168.13
2022-10-14T21:51:27.857Z,102168.13
2022-10-14T21:53:56.302Z,102160.25
2022-10-14T21:56:25.042Z,102156.72
2022-10-14T21:58:53.134Z,102162.75
2022-10-14T22:01:22.718Z,102159.28
2022-10-14T22:03:54.406Z,102149.66
2022-10-14T22:06:23.847Z,102144.41
2022-10-14T22:08:54.718Z,102147.09
2022-10-14T22:11:24.868Z,102141.13
2022-10-14T22:13:54.626Z,102132.47
2022-10-14T22:16:23.327Z,102134.16
2022-10-14T22:18:53.752Z,102128.09
2022-10-14T22:21:25.427Z,102120.28
2022-10-14T22:23:53.728Z,102114.16
2022-10-14T22:26:23.346Z,102112.53
2022-10-14T22:28:51.873Z,102109.91
2022-10-14T22:31:22.148Z,102109.91
2022-10-14T22:33:50.475Z,102095.91
2022-10-14T22:36:23.528Z,102096.75
2022-10-14T22:38:54.515Z,102099.38
2022-10-14T22:41:23.676Z,102092.34
2022-10-14T22:43:52.611Z,102092.22
2022-10-14T22:46:22.574Z,102095.66
2022-10-14T22:48:55.987Z,102094.66
2022-10-14T22:53:56.272Z,102082.25
2022-10-14T22:56:26.746Z,102077.81
2022-10-14T22:58:55.114Z,102069.00
2022-10-14T23:01:23.639Z,102060.25
2022-10-14T23:03:51.721Z,102052.28
2022-10-14T23:06:19.620Z,102033.91
2022-10-14T23:08:47.444Z,102027.78
2022-10-14T23:11:18.642Z,102014.59
2022-10-14T23:13:46.465Z,102017.22
2022-10-14T23:16:17.181Z,102010.22
2022-10-14T23:18:46.208Z,102012.84
2022-10-14T23:21:19.470Z,102005.81
2022-10-14T23:23:48.681Z,102008.41
2022-10-14T23:26:21.309Z,102003.97
2022-10-14T23:28:50.178Z,102002.16
2022-10-14T23:31:20.864Z,102004.69
2022-10-14T23:33:49.122Z,101995.94
2022-10-14T23:36:17.387Z,101986.25
2022-10-14T23:38:45.614Z,101987.09
2022-10-14T23:41:14.800Z,101994.97
2022-10-14T23:43:44.088Z,101987.47
2022-10-14T23:46:12.489Z,101967.25
2022-10-14T23:48:40.680Z,101936.34
2022-10-14T23:51:09.021Z,101906.16
2022-10-14T23:53:37.058Z,101876.69
2022-10-14T23:56:05.805Z,101852.47
2022-10-14T23:58:34.375Z,101812.38
